PVR weather

Licenciado Gustavo Díaz Ordaz International Airport
Puerto Vallarta, Jalisco, Mexico

Public forecast

Using degrees Celsius for public forecast. Weather courtesy of forecast.io.

Current aviation weather report (METAR) for Licenciado Gustavo Díaz Ordaz International Airport

Retrieved 2019/11/20 13:42 UTC (0 seconds ago):

MMPR 201342Z 04004KT 15SM SKC 22/21 A2992

Aviation forecast (TAF) for Licenciado Gustavo Díaz Ordaz International Airport

Retrieved 2019/11/20 12:12 UTC (1 hour ago):

TAF MMPR 201105Z 2012/2118 04005KT P6SM SCT250 TX29/2019Z TN23/2012Z FM201800 23010KT P6SM SCT020 SCT080 BKN250 FM210600 34005KT P6SM SCT020 SCT250 FM211700 23010KT P6SM SCT020 BKN250